CheckWX is a tool to help pilots better visualize weather data.  It is not intended as a substitute for an official pre-flight weather briefing.

15:13:48 UTC

KSLH METAR
Cheboygan County Airport
Cheboygan, Michigan, USA
Current

19 mins ago

KSLH 261455Z AUTO 00000KT 10SM CLR 15/08 A3005 RMK AO2 T01500080
Observed
May-26 @ 14:55 UTC
Visibility
10 SM
Flight Rules
VFR
Cloud Levels
  • Clear skies
Temperature
15°C / 59°F
Dewpoint
C / 46°F
Humidity
63%
Altimeter
30.05" Hg
Pressure
1017.62 hPa
Previous

38 mins ago

KSLH 261436Z AUTO 32004KT 10SM CLR 15/08 A3005 RMK AO2 T01470082
Observed
May-26 @ 14:36 UTC
Wind
  • 320° at 4 KTS
Visibility
10 SM
Flight Rules
VFR
Cloud Levels
  • Clear skies
Temperature
15°C / 59°F
Dewpoint
C / 46°F
Humidity
63%
Altimeter
30.05" Hg
Pressure
1017.62 hPa
Previous

39 mins ago

KSLH 261435Z AUTO 33004KT 10SM CLR 15/08 A3005 RMK AO2 T01460082
Observed
May-26 @ 14:35 UTC
Wind
  • 330° at 4 KTS
Visibility
10 SM
Flight Rules
VFR
Cloud Levels
  • Clear skies
Temperature
15°C / 59°F
Dewpoint
C / 46°F
Humidity
63%
Altimeter
30.05" Hg
Pressure
1017.62 hPa